createdAt,value
2018-11-07T00:00:06.836Z,93.90
2018-11-07T00:02:35.769Z,94.00
2018-11-07T00:05:05.692Z,94.10
2018-11-07T00:07:34.817Z,94.10
2018-11-07T00:10:04.108Z,94.00
2018-11-07T00:12:33.079Z,94.10
2018-11-07T00:15:02.031Z,94.10
2018-11-07T00:17:31.047Z,94.20
2018-11-07T00:20:00.557Z,94.10
2018-11-07T00:22:29.486Z,94.60
2018-11-07T00:24:58.423Z,94.20
2018-11-07T00:27:27.413Z,94.20
2018-11-07T00:29:56.435Z,94.30
2018-11-07T00:32:25.579Z,94.40
2018-11-07T00:34:54.556Z,94.40
2018-11-07T00:37:23.745Z,94.30
2018-11-07T00:39:52.725Z,94.40
2018-11-07T00:42:21.716Z,94.40
2018-11-07T00:44:51.171Z,94.40
2018-11-07T00:47:20.113Z,94.50
2018-11-07T00:49:49.198Z,94.50
2018-11-07T00:52:18.383Z,94.60
2018-11-07T00:54:47.479Z,94.70
2018-11-07T00:57:16.418Z,94.70
2018-11-07T00:59:45.369Z,94.70
2018-11-07T01:02:14.327Z,94.60
2018-11-07T01:04:43.263Z,94.70
2018-11-07T01:07:12.268Z,94.70
2018-11-07T01:09:41.358Z,94.70
2018-11-07T01:12:10.523Z,94.70
2018-11-07T01:14:39.514Z,94.80
2018-11-07T01:17:08.532Z,94.90
2018-11-07T01:19:37.505Z,95.00
2018-11-07T01:22:07.247Z,95.00
2018-11-07T01:24:36.182Z,95.30
2018-11-07T01:27:05.180Z,95.10
2018-11-07T01:29:34.149Z,95.20
2018-11-07T01:32:03.100Z,95.20
2018-11-07T01:34:32.065Z,95.30
2018-11-07T01:37:01.063Z,95.40
2018-11-07T01:39:30.154Z,95.40
2018-11-07T01:41:59.115Z,95.40
2018-11-07T01:44:28.367Z,95.40
2018-11-07T01:46:57.290Z,95.40
2018-11-07T01:49:26.229Z,95.40
2018-11-07T01:51:55.222Z,95.40
2018-11-07T01:54:24.213Z,95.50
2018-11-07T01:56:53.134Z,95.50
2018-11-07T01:59:22.062Z,95.40
2018-11-07T02:01:51.016Z,95.50
2018-11-07T02:04:20.286Z,95.50
2018-11-07T02:06:49.226Z,95.50
2018-11-07T02:09:18.139Z,95.50
2018-11-07T02:11:46.994Z,95.60
2018-11-07T02:14:16.004Z,95.60
2018-11-07T02:16:45.256Z,95.70
2018-11-07T02:19:14.309Z,95.70
2018-11-07T02:21:43.492Z,95.70
2018-11-07T02:24:12.405Z,95.80
2018-11-07T02:26:41.693Z,96.10
2018-11-07T02:29:14.486Z,95.80
2018-11-07T02:31:46.169Z,95.90
2018-11-07T02:34:16.233Z,95.90
2018-11-07T02:36:45.376Z,95.90
2018-11-07T02:39:15.567Z,96.00
2018-11-07T02:41:44.582Z,95.90
2018-11-07T02:44:14.158Z,95.90
2018-11-07T02:46:43.547Z,96.00
2018-11-07T02:49:12.495Z,95.90
2018-11-07T02:51:41.447Z,95.90
2018-11-07T02:54:10.356Z,95.90
2018-11-07T02:56:39.276Z,95.90
2018-11-07T02:59:08.203Z,96.00
2018-11-07T03:01:37.291Z,96.00
2018-11-07T03:04:06.381Z,95.90
2018-11-07T03:06:35.317Z,95.90
2018-11-07T03:09:06.533Z,96.00
2018-11-07T03:11:35.826Z,95.90
2018-11-07T03:14:05.205Z,96.00
2018-11-07T03:16:34.207Z,96.00
2018-11-07T03:19:03.126Z,96.40
2018-11-07T03:21:32.189Z,96.20
2018-11-07T03:24:01.121Z,96.10
2018-11-07T03:26:30.089Z,96.10
2018-11-07T03:28:59.032Z,96.10
2018-11-07T03:31:28.265Z,96.20
2018-11-07T03:33:57.385Z,96.20
2018-11-07T03:36:26.340Z,96.20
2018-11-07T03:38:55.284Z,96.20
2018-11-07T03:41:24.262Z,96.20
2018-11-07T03:43:53.229Z,96.20
2018-11-07T03:46:22.576Z,96.20
2018-11-07T03:48:51.500Z,96.60
2018-11-07T03:51:20.453Z,96.30
2018-11-07T03:53:49.554Z,96.30
2018-11-07T03:56:18.484Z,96.30
2018-11-07T03:58:47.600Z,96.30
2018-11-07T04:01:17.175Z,96.30
2018-11-07T04:03:46.186Z,96.30
2018-11-07T04:06:15.186Z,96.30
2018-11-07T04:08:44.128Z,96.30
2018-11-07T04:11:13.058Z,96.30
2018-11-07T04:13:42.089Z,96.40
2018-11-07T04:16:11.235Z,96.40
2018-11-07T04:18:40.372Z,96.40
2018-11-07T04:21:09.320Z,96.40
2018-11-07T04:23:38.331Z,96.40
2018-11-07T04:26:07.443Z,96.40
2018-11-07T04:28:36.437Z,96.40
2018-11-07T04:31:05.872Z,96.50
2018-11-07T04:33:34.803Z,96.60
2018-11-07T04:36:04.095Z,96.70
2018-11-07T04:38:33.109Z,96.70
2018-11-07T04:41:02.199Z,96.70
2018-11-07T04:43:31.211Z,96.60
2018-11-07T04:46:00.160Z,96.60
2018-11-07T04:48:29.128Z,96.60
2018-11-07T04:50:58.035Z,96.60
2018-11-07T04:53:26.977Z,96.70
2018-11-07T04:55:56.061Z,96.70
2018-11-07T04:58:25.019Z,96.80
2018-11-07T05:00:53.940Z,96.80
2018-11-07T05:03:22.881Z,96.90
2018-11-07T05:05:52.182Z,96.80
2018-11-07T05:08:21.276Z,96.80
2018-11-07T05:10:50.417Z,96.80
2018-11-07T05:13:19.367Z,96.90
2018-11-07T05:15:48.325Z,96.80
2018-11-07T05:18:17.453Z,96.80
2018-11-07T05:20:46.385Z,96.80
2018-11-07T05:23:15.469Z,96.90
2018-11-07T05:25:44.423Z,96.90
2018-11-07T05:28:13.367Z,97.00
2018-11-07T05:30:42.353Z,96.90
2018-11-07T05:33:11.304Z,96.90
2018-11-07T05:35:40.260Z,96.90
2018-11-07T05:38:09.503Z,97.00
2018-11-07T05:40:38.519Z,97.00
2018-11-07T05:43:07.607Z,97.10
2018-11-07T05:45:36.568Z,97.10
2018-11-07T05:48:05.620Z,97.10
2018-11-07T05:50:34.585Z,97.20
2018-11-07T05:53:03.572Z,97.20
2018-11-07T05:55:32.535Z,97.20
2018-11-07T05:58:01.608Z,97.30
2018-11-07T06:00:30.580Z,97.30
2018-11-07T06:02:59.584Z,97.30
2018-11-07T06:05:28.634Z,97.20
2018-11-07T06:07:57.627Z,97.30
2018-11-07T06:10:26.667Z,97.30
2018-11-07T06:12:55.618Z,97.40
2018-11-07T06:15:24.665Z,97.40
2018-11-07T06:17:53.742Z,97.40
2018-11-07T06:20:22.674Z,97.40
2018-11-07T06:22:51.808Z,97.30
2018-11-07T06:25:20.854Z,97.30
2018-11-07T06:27:49.920Z,97.30
2018-11-07T06:30:18.988Z,97.40
2018-11-07T06:32:47.927Z,97.30
2018-11-07T06:35:16.956Z,97.30
2018-11-07T06:37:45.948Z,97.40
2018-11-07T06:40:14.978Z,97.40
2018-11-07T06:42:45.779Z,97.80
2018-11-07T06:45:14.729Z,97.50
2018-11-07T06:47:43.695Z,97.50
2018-11-07T06:50:14.437Z,97.40
2018-11-07T06:52:43.897Z,97.40
2018-11-07T06:55:13.078Z,97.40
2018-11-07T06:57:42.553Z,97.70
2018-11-07T07:00:14.173Z,97.40
2018-11-07T07:02:44.370Z,97.40
2018-11-07T07:05:13.791Z,97.40
2018-11-07T07:07:42.807Z,97.40
2018-11-07T07:10:14.217Z,97.40
2018-11-07T07:12:43.267Z,97.40
2018-11-07T07:15:14.075Z,97.30
2018-11-07T07:17:43.157Z,97.30
2018-11-07T07:20:15.349Z,97.30
2018-11-07T07:22:45.407Z,97.30
2018-11-07T07:25:14.583Z,97.40
2018-11-07T07:27:44.234Z,97.40
2018-11-07T07:30:15.205Z,97.30
2018-11-07T07:32:45.090Z,97.30
2018-11-07T07:35:14.985Z,97.30
2018-11-07T07:37:44.159Z,97.20
2018-11-07T07:40:14.334Z,97.20
2018-11-07T07:42:44.080Z,97.20
2018-11-07T07:45:15.039Z,97.20
2018-11-07T07:47:44.710Z,97.10
2018-11-07T07:50:14.912Z,97.10
2018-11-07T07:52:44.312Z,97.10
2018-11-07T07:55:13.818Z,97.10
2018-11-07T07:57:43.314Z,97.00
2018-11-07T08:00:14.385Z,97.00
2018-11-07T08:02:45.184Z,96.90
2018-11-07T08:05:14.372Z,96.90
2018-11-07T08:07:44.161Z,96.80
2018-11-07T08:10:14.459Z,96.70
2018-11-07T08:12:44.046Z,96.60
2018-11-07T08:15:13.937Z,96.50
2018-11-07T08:17:43.696Z,96.50
2018-11-07T08:20:14.145Z,96.30
2018-11-07T08:22:44.407Z,96.20
2018-11-07T08:25:13.383Z,96.10
2018-11-07T08:27:42.341Z,96.00
2018-11-07T08:30:14.275Z,95.90
2018-11-07T08:32:43.608Z,95.70
2018-11-07T08:35:13.591Z,95.70
2018-11-07T08:37:43.594Z,95.60
2018-11-07T08:40:17.719Z,95.40
2018-11-07T08:42:47.709Z,95.30
2018-11-07T08:45:16.837Z,95.20
2018-11-07T08:47:46.653Z,95.10
2018-11-07T08:50:17.067Z,95.40
2018-11-07T08:52:47.394Z,95.00
2018-11-07T08:55:17.814Z,94.90
2018-11-07T08:57:47.265Z,94.80
2018-11-07T09:00:17.905Z,94.70
2018-11-07T09:02:47.509Z,94.60
2018-11-07T09:05:17.560Z,94.50
2018-11-07T09:07:47.081Z,94.40
2018-11-07T09:10:17.342Z,94.40
2018-11-07T09:12:46.624Z,94.30
2018-11-07T09:15:17.350Z,94.20
2018-11-07T09:17:46.315Z,94.10
2018-11-07T09:20:17.270Z,94.00
2018-11-07T09:22:46.369Z,93.90
2018-11-07T09:25:16.176Z,94.20
2018-11-07T09:27:46.065Z,93.80
2018-11-07T09:30:16.472Z,93.70
2018-11-07T09:32:45.456Z,93.70
2018-11-07T09:35:15.128Z,93.50
2018-11-07T09:37:44.362Z,93.30
2018-11-07T09:40:17.103Z,93.30
2018-11-07T09:42:46.909Z,93.10
2018-11-07T09:45:17.106Z,92.90
2018-11-07T09:47:47.166Z,92.70
2018-11-07T09:50:17.454Z,92.70
2018-11-07T09:52:46.610Z,92.50
2018-11-07T09:55:18.214Z,92.40
2018-11-07T09:57:47.392Z,92.30
2018-11-07T10:00:19.270Z,92.00
2018-11-07T10:02:48.479Z,92.00
2018-11-07T10:05:18.709Z,92.00
2018-11-07T10:07:47.909Z,92.00
2018-11-07T10:10:18.315Z,92.00
2018-11-07T10:12:47.722Z,91.80
2018-11-07T10:15:17.540Z,91.70
2018-11-07T10:17:46.502Z,91.60
2018-11-07T10:20:17.162Z,91.50
2018-11-07T10:22:46.978Z,91.40
2018-11-07T10:25:16.266Z,91.20
2018-11-07T10:27:45.529Z,91.00
2018-11-07T10:30:16.056Z,90.90
2018-11-07T10:32:46.332Z,90.80
2018-11-07T10:35:15.379Z,90.60
2018-11-07T10:37:44.818Z,90.50
2018-11-07T10:40:20.763Z,90.40
2018-11-07T10:42:49.780Z,90.30
2018-11-07T10:45:18.786Z,90.20
2018-11-07T10:47:48.625Z,90.10
2018-11-07T10:50:18.911Z,90.00
2018-11-07T10:52:48.595Z,89.90
2018-11-07T10:55:18.011Z,89.80
2018-11-07T10:57:47.137Z,89.20
2018-11-07T11:00:21.693Z,88.80
2018-11-07T11:02:56.860Z,88.60
2018-11-07T11:05:26.280Z,88.40
2018-11-07T11:07:55.246Z,88.10
2018-11-07T11:10:24.721Z,87.70
2018-11-07T11:12:53.723Z,87.00
2018-11-07T11:15:22.828Z,86.90
2018-11-07T11:17:51.913Z,86.70
2018-11-07T11:20:20.866Z,85.80
2018-11-07T11:22:49.831Z,85.60
2018-11-07T11:25:18.905Z,85.80
2018-11-07T11:27:48.025Z,85.60
2018-11-07T11:30:16.991Z,85.50
2018-11-07T11:32:46.178Z,85.10
2018-11-07T11:35:15.373Z,84.80
2018-11-07T11:37:44.355Z,83.90
2018-11-07T11:40:14.964Z,83.50
2018-11-07T11:42:44.721Z,84.60
2018-11-07T11:45:15.263Z,83.60
2018-11-07T11:47:44.956Z,83.50
2018-11-07T11:50:16.266Z,83.50
2018-11-07T11:52:46.118Z,83.30
2018-11-07T11:55:15.114Z,83.30
2018-11-07T11:57:44.735Z,83.10
2018-11-07T12:00:15.840Z,83.10
2018-11-07T12:02:45.492Z,83.10
2018-11-07T12:05:15.370Z,83.10
2018-11-07T12:07:44.536Z,83.00
2018-11-07T12:10:18.999Z,82.50
2018-11-07T12:12:49.646Z,82.80
2018-11-07T12:15:19.841Z,82.10
2018-11-07T12:17:49.320Z,82.10
2018-11-07T12:20:18.450Z,82.60
2018-11-07T12:22:47.580Z,81.40
2018-11-07T12:25:17.290Z,81.10
2018-11-07T12:27:46.585Z,81.30
2018-11-07T12:30:17.742Z,81.10
2018-11-07T12:32:47.632Z,81.20
2018-11-07T12:35:17.170Z,81.10
2018-11-07T12:37:46.690Z,81.10
2018-11-07T12:40:16.084Z,81.00
2018-11-07T12:42:45.105Z,81.00
2018-11-07T12:45:15.487Z,80.90
2018-11-07T12:47:44.419Z,80.60
2018-11-07T12:50:17.751Z,80.60
2018-11-07T12:52:47.296Z,80.50
2018-11-07T12:55:16.854Z,80.40
2018-11-07T12:57:45.801Z,80.30
2018-11-07T13:00:17.883Z,79.90
2018-11-07T13:02:47.193Z,80.00
2018-11-07T13:05:17.449Z,79.30
2018-11-07T13:07:47.491Z,79.30
2018-11-07T13:10:17.700Z,79.10
2018-11-07T13:12:47.341Z,79.10
2018-11-07T13:15:17.041Z,79.10
2018-11-07T13:17:47.407Z,79.10
2018-11-07T13:20:18.513Z,78.90
2018-11-07T13:22:49.016Z,78.30
2018-11-07T13:25:18.279Z,77.80
2018-11-07T13:27:47.339Z,77.60
2018-11-07T13:30:17.624Z,77.50
2018-11-07T13:32:46.604Z,76.90
2018-11-07T13:35:16.480Z,76.80
2018-11-07T13:37:46.692Z,76.60
2018-11-07T13:40:18.349Z,76.40
2018-11-07T13:42:47.420Z,76.20
2018-11-07T13:45:18.559Z,75.90
2018-11-07T13:47:48.904Z,75.40
2018-11-07T13:50:18.366Z,75.30
2018-11-07T13:52:47.539Z,75.40
2018-11-07T13:55:16.643Z,75.20
2018-11-07T13:57:45.900Z,75.30
2018-11-07T14:00:19.918Z,75.30
2018-11-07T14:02:49.296Z,75.60
2018-11-07T14:05:18.280Z,75.60
2018-11-07T14:07:47.547Z,75.80
2018-11-07T14:10:20.474Z,75.90
2018-11-07T14:12:50.450Z,76.00
2018-11-07T14:15:19.444Z,76.10
2018-11-07T14:17:48.743Z,76.10
2018-11-07T14:20:17.988Z,76.30
2018-11-07T14:22:47.124Z,76.70
2018-11-07T14:25:16.158Z,76.90
2018-11-07T14:27:45.365Z,77.00
2018-11-07T14:30:16.019Z,77.30
2018-11-07T14:32:51.367Z,77.30
2018-11-07T14:35:20.915Z,77.70
2018-11-07T14:37:50.333Z,78.20
2018-11-07T14:40:19.446Z,78.80
2018-11-07T14:42:48.445Z,79.20
2018-11-07T14:45:17.905Z,79.60
2018-11-07T14:47:46.966Z,80.00
2018-11-07T14:50:16.227Z,80.40
2018-11-07T14:52:45.533Z,80.70
2018-11-07T14:55:14.533Z,80.90
2018-11-07T14:57:43.629Z,81.00
2018-11-07T15:00:14.485Z,81.10
2018-11-07T15:02:44.135Z,81.50
2018-11-07T15:05:14.797Z,81.60
2018-11-07T15:07:44.509Z,81.80
2018-11-07T15:10:14.704Z,82.10
2018-11-07T15:12:43.738Z,82.30
2018-11-07T15:15:17.578Z,82.70
2018-11-07T15:17:47.348Z,83.00
2018-11-07T15:20:17.490Z,83.30
2018-11-07T15:22:46.492Z,83.60
2018-11-07T15:25:16.633Z,83.80
2018-11-07T15:27:46.543Z,84.30
2018-11-07T15:30:16.836Z,84.50
2018-11-07T15:32:46.717Z,84.80
2018-11-07T15:35:15.831Z,85.20
2018-11-07T15:37:44.937Z,85.50
2018-11-07T15:40:15.352Z,85.70
2018-11-07T15:42:44.958Z,86.00
2018-11-07T15:45:15.414Z,86.20
2018-11-07T15:47:44.478Z,86.50
2018-11-07T15:50:18.912Z,86.90
2018-11-07T15:52:48.519Z,87.10
2018-11-07T15:55:17.766Z,87.40
2018-11-07T15:57:46.718Z,87.70
2018-11-07T16:00:16.930Z,87.80
2018-11-07T16:02:45.966Z,88.20
2018-11-07T16:05:15.934Z,88.40
2018-11-07T16:07:44.905Z,88.50
2018-11-07T16:10:15.056Z,88.80
2018-11-07T16:12:44.463Z,89.10
2018-11-07T16:15:15.318Z,89.50
2018-11-07T16:17:45.074Z,89.70
2018-11-07T16:20:15.545Z,90.00
2018-11-07T16:22:45.388Z,90.00
2018-11-07T16:25:14.502Z,90.10
2018-11-07T16:27:44.017Z,90.10
2018-11-07T16:30:14.571Z,90.20
2018-11-07T16:32:43.909Z,90.30
2018-11-07T16:35:13.594Z,90.40
2018-11-07T16:37:43.109Z,90.50
2018-11-07T16:40:15.677Z,90.60
2018-11-07T16:42:44.991Z,90.60
2018-11-07T16:45:15.279Z,90.70
2018-11-07T16:47:44.354Z,90.80
2018-11-07T16:50:15.106Z,90.80
2018-11-07T16:52:44.215Z,90.90
2018-11-07T16:55:13.918Z,91.00
2018-11-07T16:57:42.898Z,91.10
2018-11-07T17:00:18.161Z,91.10
2018-11-07T17:02:47.984Z,91.20
2018-11-07T17:05:17.465Z,91.30
2018-11-07T17:07:47.803Z,91.30
2018-11-07T17:10:17.198Z,91.40
2018-11-07T17:12:46.179Z,91.40
2018-11-07T17:15:15.243Z,91.50
2018-11-07T17:17:44.207Z,91.50
2018-11-07T17:20:14.321Z,91.60
2018-11-07T17:22:43.704Z,91.70
2018-11-07T17:25:15.167Z,91.80
2018-11-07T17:27:44.359Z,91.70
2018-11-07T17:30:14.430Z,91.80
2018-11-07T17:32:43.567Z,91.90
2018-11-07T17:35:13.847Z,91.90
2018-11-07T17:37:43.390Z,91.90
2018-11-07T17:40:15.270Z,92.20
2018-11-07T17:42:44.573Z,92.00
2018-11-07T17:45:15.697Z,92.00
2018-11-07T17:47:45.195Z,92.10
2018-11-07T17:50:15.621Z,92.20
2018-11-07T17:52:44.726Z,92.20
2018-11-07T17:55:15.183Z,92.30
2018-11-07T17:57:44.148Z,92.30
2018-11-07T18:00:18.767Z,92.40
2018-11-07T18:02:48.097Z,92.40
2018-11-07T18:05:17.274Z,92.50
2018-11-07T18:07:46.392Z,92.40
2018-11-07T18:10:16.956Z,92.40
2018-11-07T18:12:46.291Z,92.50
2018-11-07T18:15:15.382Z,92.50
2018-11-07T18:17:44.407Z,92.50
2018-11-07T18:20:14.921Z,92.60
2018-11-07T18:22:43.997Z,92.70
2018-11-07T18:25:13.936Z,92.60
2018-11-07T18:27:43.362Z,92.70
2018-11-07T18:30:13.742Z,92.70
2018-11-07T18:32:43.268Z,92.70
2018-11-07T18:35:13.926Z,92.80
2018-11-07T18:37:43.196Z,92.80
2018-11-07T18:40:13.532Z,92.80
2018-11-07T18:42:42.545Z,92.80
2018-11-07T18:45:12.344Z,92.90
2018-11-07T18:47:42.878Z,93.00
2018-11-07T18:50:14.733Z,93.00
2018-11-07T18:52:44.119Z,92.90
2018-11-07T18:55:14.222Z,92.90
2018-11-07T18:57:44.144Z,93.00
2018-11-07T19:00:15.847Z,93.00
2018-11-07T19:02:45.806Z,93.00
2018-11-07T19:05:15.307Z,93.10
2018-11-07T19:07:44.384Z,93.10
2018-11-07T19:10:18.716Z,93.10
2018-11-07T19:12:48.170Z,93.20
2018-11-07T19:15:17.652Z,93.20
2018-11-07T19:17:47.656Z,93.20
2018-11-07T19:20:17.235Z,93.20
2018-11-07T19:22:46.556Z,93.20
2018-11-07T19:25:17.024Z,93.30
2018-11-07T19:27:46.119Z,93.20
2018-11-07T19:30:16.747Z,93.20
2018-11-07T19:32:46.812Z,93.30
2018-11-07T19:35:17.263Z,93.30
2018-11-07T19:37:47.095Z,93.40
2018-11-07T19:40:18.767Z,93.40
2018-11-07T19:42:48.065Z,93.40
2018-11-07T19:45:18.370Z,93.40
2018-11-07T19:47:47.590Z,93.40
2018-11-07T19:50:17.727Z,93.40
2018-11-07T19:52:47.793Z,93.80
2018-11-07T19:55:20.646Z,93.40
2018-11-07T19:57:57.551Z,93.40
2018-11-07T20:00:27.000Z,93.40
2018-11-07T20:02:55.969Z,93.40
2018-11-07T20:05:25.316Z,93.40
2018-11-07T20:07:54.273Z,93.40
2018-11-07T20:10:23.404Z,93.40
2018-11-07T20:12:52.629Z,93.40
2018-11-07T20:15:21.947Z,93.40
2018-11-07T20:17:51.303Z,93.50
2018-11-07T20:20:20.296Z,93.60
2018-11-07T20:22:49.293Z,93.50
2018-11-07T20:25:18.480Z,93.50
2018-11-07T20:27:47.624Z,93.60
2018-11-07T20:30:18.141Z,93.60
2018-11-07T20:32:47.118Z,93.70
2018-11-07T20:35:17.361Z,93.60
2018-11-07T20:37:46.509Z,93.90
2018-11-07T20:40:16.910Z,93.90
2018-11-07T20:42:45.950Z,94.00
2018-11-07T20:45:15.601Z,93.90
2018-11-07T20:47:45.070Z,93.90
2018-11-07T20:50:16.244Z,93.90
2018-11-07T20:52:45.782Z,93.90
2018-11-07T20:55:15.258Z,94.00
2018-11-07T20:57:44.234Z,93.90
2018-11-07T21:00:18.364Z,93.90
2018-11-07T21:02:47.763Z,94.00
2018-11-07T21:05:17.108Z,93.90
2018-11-07T21:07:46.040Z,93.90
2018-11-07T21:10:18.262Z,93.90
2018-11-07T21:12:47.600Z,93.90
2018-11-07T21:15:17.519Z,94.00
2018-11-07T21:17:46.946Z,94.00
2018-11-07T21:20:15.935Z,94.00
2018-11-07T21:22:45.113Z,94.00
2018-11-07T21:25:14.274Z,94.00
2018-11-07T21:27:43.343Z,94.00
2018-11-07T21:30:14.071Z,94.10
2018-11-07T21:32:43.668Z,94.10
2018-11-07T21:35:12.870Z,94.20
2018-11-07T21:37:42.032Z,94.20
2018-11-07T21:40:13.101Z,94.20
2018-11-07T21:42:42.357Z,94.20
2018-11-07T21:45:12.625Z,94.20
2018-11-07T21:47:41.952Z,94.30
2018-11-07T21:50:12.550Z,94.30
2018-11-07T21:52:41.634Z,94.30
2018-11-07T21:55:10.640Z,94.30
2018-11-07T21:57:39.917Z,94.30
2018-11-07T22:00:11.213Z,94.30
2018-11-07T22:02:40.413Z,94.30
2018-11-07T22:05:10.485Z,94.30
2018-11-07T22:07:39.791Z,94.30
2018-11-07T22:10:09.659Z,94.30
2018-11-07T22:12:38.635Z,94.30
2018-11-07T22:15:08.557Z,94.40
2018-11-07T22:17:37.698Z,94.40
2018-11-07T22:20:13.265Z,94.40
2018-11-07T22:22:42.446Z,94.40
2018-11-07T22:25:11.541Z,94.40
2018-11-07T22:27:40.542Z,94.40
2018-11-07T22:30:11.236Z,94.40
2018-11-07T22:32:40.475Z,94.50
2018-11-07T22:35:11.410Z,94.40
2018-11-07T22:37:40.620Z,94.50
2018-11-07T22:40:11.636Z,94.50
2018-11-07T22:42:40.640Z,94.50
2018-11-07T22:45:11.170Z,94.60
2018-11-07T22:47:40.320Z,94.50
2018-11-07T22:50:11.210Z,94.50
2018-11-07T22:52:41.346Z,94.60
2018-11-07T22:55:10.278Z,94.50
2018-11-07T22:57:39.827Z,94.50
2018-11-07T23:00:15.027Z,94.50
2018-11-07T23:02:43.953Z,94.60
2018-11-07T23:05:12.898Z,94.60
2018-11-07T23:07:41.835Z,94.60
2018-11-07T23:10:10.982Z,94.60
2018-11-07T23:12:39.938Z,94.70
2018-11-07T23:15:08.951Z,94.70
2018-11-07T23:17:38.020Z,94.70
2018-11-07T23:20:08.693Z,94.70
2018-11-07T23:22:37.624Z,94.70
2018-11-07T23:25:07.791Z,94.80
2018-11-07T23:27:36.733Z,94.80
2018-11-07T23:30:06.507Z,94.80
2018-11-07T23:32:35.449Z,94.80
2018-11-07T23:35:05.941Z,94.90
2018-11-07T23:37:34.972Z,95.20
2018-11-07T23:40:04.003Z,94.90
2018-11-07T23:42:33.164Z,94.90
2018-11-07T23:45:02.293Z,94.90
2018-11-07T23:47:31.270Z,94.90
2018-11-07T23:50:00.879Z,94.90
2018-11-07T23:52:50.789Z,95.00
2018-11-07T23:55:22.128Z,94.90
2018-11-07T23:57:51.814Z,95.00
